createdAt,value
2022-11-20T00:00:20.001Z,33.2
2022-11-20T00:02:26.485Z,40.4
2022-11-20T00:04:29.968Z,32.3
2022-11-20T00:06:33.486Z,24.5
2022-11-20T00:07:36.731Z,24.5
2022-11-20T00:09:40.249Z,34.8
2022-11-20T00:11:43.778Z,31.6
2022-11-20T00:13:47.303Z,44.9
2022-11-20T00:28:14.891Z,42.4
2022-11-20T00:32:24.854Z,12.3
2022-11-20T00:34:28.344Z,27.7
2022-11-20T00:36:31.843Z,28.4
2022-11-20T00:38:35.378Z,19.6
2022-11-20T00:40:38.920Z,34.2
2022-11-20T00:48:57.302Z,30.5
2022-11-20T00:51:00.822Z,30.5
2022-11-20T00:55:07.819Z,20.6
2022-11-20T00:59:17.734Z,32.1
2022-11-20T01:01:21.394Z,28.1
2022-11-20T01:03:27.192Z,17.5
2022-11-20T01:04:27.961Z,18.3
2022-11-20T01:06:31.484Z,11.3
2022-11-20T01:08:34.959Z,16.8
2022-11-20T01:10:38.462Z,19.9
2022-11-20T01:12:44.916Z,25.4
2022-11-20T01:14:48.449Z,21.8
2022-11-20T01:16:51.910Z,19.9
2022-11-20T01:18:55.381Z,11.1
2022-11-20T01:20:58.896Z,12.9
2022-11-20T01:23:02.376Z,13.5
2022-11-20T01:25:05.903Z,16
2022-11-20T01:29:15.815Z,17.5
2022-11-20T01:31:19.284Z,20.4
2022-11-20T01:33:22.788Z,22.1
2022-11-20T01:35:26.278Z,17.4
2022-11-20T01:37:29.779Z,21.2
2022-11-20T01:39:33.255Z,24.5
2022-11-20T01:41:39.718Z,13.8
2022-11-20T01:43:43.221Z,15.8
2022-11-20T01:45:46.725Z,27.2
2022-11-20T01:47:50.205Z,15.7
2022-11-20T01:51:57.163Z,29.7
2022-11-20T01:54:00.639Z,19
2022-11-20T01:56:07.075Z,13.6
2022-11-20T01:58:10.564Z,19.6
2022-11-20T02:00:14.026Z,19.8
2022-11-20T02:02:43.626Z,28
2022-11-20T02:04:47.093Z,25
2022-11-20T02:06:50.603Z,28.6
2022-11-20T02:08:57.020Z,30.6
2022-11-20T02:11:00.491Z,24.6
2022-11-20T02:13:03.962Z,13.9
2022-11-20T02:15:07.440Z,18.4
2022-11-20T02:17:10.907Z,26.8
2022-11-20T02:19:14.402Z,20.2
2022-11-20T02:21:17.884Z,14.6
2022-11-20T02:23:24.287Z,23.1
2022-11-20T02:25:27.771Z,22.5
2022-11-20T02:29:34.693Z,14.5
2022-11-20T02:31:38.146Z,16
2022-11-20T02:33:41.657Z,5.9
2022-11-20T02:35:45.118Z,9.6
2022-11-20T02:37:51.533Z,20
2022-11-20T02:39:55.013Z,27.5
2022-11-20T02:41:58.500Z,16.6
2022-11-20T02:44:01.950Z,25.1
2022-11-20T02:46:05.430Z,19.4
2022-11-20T02:48:08.907Z,22.3
2022-11-20T02:50:12.389Z,12.5
2022-11-20T02:52:18.786Z,12.4
2022-11-20T02:54:22.233Z,16.4
2022-11-20T02:56:25.713Z,27.4
2022-11-20T02:57:28.894Z,38.3
2022-11-20T02:59:32.381Z,23
2022-11-20T03:01:35.868Z,30.7
2022-11-20T03:03:39.360Z,31.6
2022-11-20T03:05:45.783Z,28.3
2022-11-20T03:07:49.222Z,20.2
2022-11-20T03:09:52.683Z,19.7
2022-11-20T03:11:56.176Z,17.7
2022-11-20T03:13:59.629Z,16.3
2022-11-20T03:18:06.572Z,13.8
2022-11-20T03:20:12.970Z,22.5
2022-11-20T03:22:16.407Z,18.3
2022-11-20T03:24:19.863Z,16.9
2022-11-20T03:26:23.335Z,14.2
2022-11-20T03:28:26.796Z,11.7
2022-11-20T03:30:30.943Z,19.5
2022-11-20T03:32:33.711Z,14.4
2022-11-20T03:34:40.097Z,17.9
2022-11-20T03:36:43.528Z,41.4
2022-11-20T03:38:46.978Z,19.6
2022-11-20T03:40:50.434Z,15.5
2022-11-20T03:42:53.906Z,16.5
2022-11-20T03:44:57.347Z,21.4
2022-11-20T03:47:00.765Z,18.2
2022-11-20T03:49:07.179Z,18.7
2022-11-20T03:51:10.608Z,16.7
2022-11-20T03:53:14.080Z,13.9
2022-11-20T03:54:17.298Z,12.6
2022-11-20T03:56:20.737Z,17.9
2022-11-20T03:58:24.182Z,16.6
2022-11-20T04:00:27.646Z,16.5
2022-11-20T04:02:34.022Z,13.5
2022-11-20T04:04:37.481Z,11.7
2022-11-20T04:06:40.952Z,19
2022-11-20T04:08:44.355Z,13.6
2022-11-20T04:10:47.834Z,30
2022-11-20T04:12:51.232Z,19.4
2022-11-20T04:14:54.651Z,8.1
2022-11-20T04:17:01.055Z,17.5
2022-11-20T04:19:04.493Z,15.9
2022-11-20T04:21:07.916Z,15.4
2022-11-20T04:23:11.352Z,23.1
2022-11-20T04:25:14.798Z,17
2022-11-20T04:27:18.236Z,16.5
2022-11-20T04:29:21.814Z,12
2022-11-20T04:31:28.034Z,27.1
2022-11-20T04:33:34.212Z,19.4
2022-11-20T04:35:34.888Z,13.3
2022-11-20T04:37:38.338Z,14.3
2022-11-20T04:39:41.763Z,12
2022-11-20T04:41:45.219Z,27.7
2022-11-20T04:45:54.987Z,19.9
2022-11-20T04:51:05.023Z,23.1
2022-11-20T04:53:08.448Z,14.1
2022-11-20T04:55:11.882Z,11.6
2022-11-20T04:57:15.346Z,10.8
2022-11-20T04:59:21.865Z,14.8
2022-11-20T05:01:25.282Z,10.5
2022-11-20T05:03:28.535Z,15
2022-11-20T05:05:31.959Z,10.8
2022-11-20T05:07:35.429Z,21.6
2022-11-20T05:09:38.818Z,9.8
2022-11-20T05:11:42.229Z,13.9
2022-11-20T05:13:48.623Z,17.4
2022-11-20T05:15:52.084Z,17
2022-11-20T05:17:55.530Z,21.7
2022-11-20T05:19:58.937Z,7.1
2022-11-20T05:22:02.365Z,26.6
2022-11-20T05:24:05.763Z,21.2
2022-11-20T05:26:09.235Z,12.9
2022-11-20T05:28:15.580Z,17.7
2022-11-20T05:30:19.052Z,19.9
2022-11-20T05:32:22.468Z,21.1
2022-11-20T05:38:32.768Z,12.1
2022-11-20T05:40:36.180Z,15
2022-11-20T05:42:42.549Z,15.9
2022-11-20T05:46:49.405Z,13.6
2022-11-20T05:49:07.396Z,11.6
2022-11-20T05:51:10.833Z,23.7
2022-11-20T05:53:14.228Z,10.4
2022-11-20T05:55:20.623Z,17.5
2022-11-20T05:57:24.038Z,20.8
2022-11-20T05:59:27.499Z,14.1
2022-11-20T06:01:30.913Z,21.5
2022-11-20T06:03:34.358Z,20.6
2022-11-20T06:05:37.763Z,14.6
2022-11-20T06:07:41.254Z,14.9
2022-11-20T06:11:51.017Z,13.3
2022-11-20T06:13:54.431Z,16.7
2022-11-20T06:15:57.887Z,15.1
2022-11-20T06:18:01.295Z,18.5
2022-11-20T06:20:04.715Z,22.1
2022-11-20T06:22:08.127Z,19.5
2022-11-20T06:24:15.456Z,24.3
2022-11-20T06:26:19.018Z,15.4
2022-11-20T06:28:22.296Z,23.6
2022-11-20T06:30:25.719Z,17.3
2022-11-20T06:32:29.124Z,10.3
2022-11-20T06:34:32.549Z,16
2022-11-20T06:36:35.999Z,19.3
2022-11-20T06:38:42.345Z,23.1
2022-11-20T06:40:47.282Z,20
2022-11-20T06:42:50.698Z,15.9
2022-11-20T06:43:53.840Z,21.2
2022-11-20T06:45:57.285Z,16.6
2022-11-20T06:48:00.696Z,19.3
2022-11-20T06:50:04.103Z,13.8
2022-11-20T06:52:10.561Z,30.5
2022-11-20T06:54:13.898Z,18.7
2022-11-20T06:56:17.309Z,18.2
2022-11-20T06:58:20.701Z,22.2
2022-11-20T07:00:24.132Z,17.3
2022-11-20T07:02:27.528Z,19.9
2022-11-20T07:04:30.963Z,20.3
2022-11-20T07:06:37.340Z,15.7
2022-11-20T07:08:40.719Z,11.9
2022-11-20T07:10:44.137Z,30.4
2022-11-20T07:12:47.539Z,18.9
2022-11-20T07:16:54.368Z,9.9
2022-11-20T07:18:57.773Z,22.6
2022-11-20T07:21:04.151Z,30.4
2022-11-20T07:23:07.533Z,27.2
2022-11-20T07:25:10.930Z,16.7
2022-11-20T07:27:14.335Z,12.8
2022-11-20T07:29:17.759Z,22.3
2022-11-20T07:31:21.168Z,18.7
2022-11-20T07:33:24.544Z,13.2
2022-11-20T07:35:30.894Z,15.2
2022-11-20T07:37:34.295Z,13
2022-11-20T07:39:37.717Z,22
2022-11-20T07:40:40.910Z,15.5
2022-11-20T07:42:44.337Z,25.3
2022-11-20T07:53:04.390Z,20.5
2022-11-20T07:55:07.818Z,18.2
2022-11-20T07:57:11.262Z,19
2022-11-20T07:59:14.669Z,16.1
2022-11-20T08:01:18.166Z,21.9
2022-11-20T08:03:25.094Z,22.5
2022-11-20T08:05:27.939Z,17.8
2022-11-20T08:09:34.814Z,20.6
2022-11-20T08:11:38.282Z,49.9
2022-11-20T08:15:45.163Z,13.5
2022-11-20T08:18:15.575Z,23
2022-11-20T08:19:55.077Z,20.2
2022-11-20T08:21:58.556Z,26.4
2022-11-20T08:24:01.978Z,35.5
2022-11-20T08:26:05.471Z,20.2
2022-11-20T08:28:18.378Z,19.6
2022-11-20T08:30:12.466Z,30.7
2022-11-20T08:34:22.520Z,27.8
2022-11-20T08:36:26.086Z,22.8
2022-11-20T08:37:29.299Z,31.5
2022-11-20T08:39:32.892Z,34.5
2022-11-20T08:41:36.514Z,50.7
2022-11-20T08:43:40.136Z,43
2022-11-20T08:45:46.690Z,39.9
2022-11-20T08:47:50.344Z,40.8
2022-11-20T08:49:53.991Z,48.9
2022-11-20T08:51:57.623Z,42.6
2022-11-20T08:54:01.315Z,44.7
2022-11-20T08:56:04.956Z,22.8
2022-11-20T08:58:08.636Z,29.4
2022-11-20T09:00:15.240Z,25.8
2022-11-20T09:02:18.948Z,32.8
2022-11-20T09:04:22.621Z,25.2
2022-11-20T09:06:26.298Z,23.7
2022-11-20T09:08:29.995Z,22.1
2022-11-20T09:10:33.676Z,30.8
2022-11-20T09:12:37.385Z,26.7
2022-11-20T09:14:43.999Z,25.1
2022-11-20T09:16:47.690Z,28.7
2022-11-20T09:19:02.204Z,30.6
2022-11-20T09:20:55.033Z,29.3
2022-11-20T09:22:58.639Z,29.5
2022-11-20T09:25:02.376Z,38
2022-11-20T09:27:06.120Z,25.6
2022-11-20T09:29:12.771Z,27.2
2022-11-20T09:31:16.527Z,32.8
2022-11-20T09:33:20.253Z,18.9
2022-11-20T09:35:49.959Z,38.7
2022-11-20T09:37:53.714Z,31.5
2022-11-20T09:42:04.006Z,25.5
2022-11-20T09:44:07.751Z,30
2022-11-20T09:46:11.493Z,25.3
2022-11-20T09:48:15.229Z,31.2
2022-11-20T09:50:19.035Z,21.8
2022-11-20T09:52:22.738Z,26.1
2022-11-20T09:54:26.469Z,26.3
2022-11-20T09:56:33.109Z,25.5
2022-11-20T09:58:36.860Z,32.1
2022-11-20T10:00:40.681Z,22
2022-11-20T10:02:44.339Z,20.7
2022-11-20T10:04:48.081Z,22.4
2022-11-20T10:07:04.119Z,36.6
2022-11-20T10:08:55.592Z,11.7
2022-11-20T10:11:02.222Z,22.6
2022-11-20T10:13:05.968Z,38.7
2022-11-20T10:15:09.698Z,19
2022-11-20T10:17:13.449Z,23
2022-11-20T10:19:17.195Z,22.7
2022-11-20T10:21:21.041Z,28.7
2022-11-20T10:23:26.095Z,19.2
2022-11-20T10:25:31.371Z,27.2
2022-11-20T10:27:35.040Z,21.4
2022-11-20T10:29:38.803Z,26.8
2022-11-20T10:32:45.926Z,25.2
2022-11-20T10:38:59.924Z,27.1
2022-11-20T10:41:03.681Z,21.6
2022-11-20T10:43:07.436Z,23.5
2022-11-20T10:45:11.177Z,22.1
2022-11-20T10:49:18.926Z,24.8
2022-11-20T10:51:22.301Z,16.5
2022-11-20T10:53:28.875Z,22
2022-11-20T10:55:32.655Z,26.4
2022-11-20T11:01:43.839Z,29.5
2022-11-20T11:05:51.379Z,18.8
2022-11-20T11:07:57.972Z,30.9
2022-11-20T11:10:01.664Z,26.8
2022-11-20T11:14:09.214Z,28.6
2022-11-20T11:16:12.999Z,28.7
2022-11-20T11:18:16.803Z,19.3
2022-11-20T11:20:20.567Z,30.1
2022-11-20T11:24:42.163Z,27.2
2022-11-20T11:26:34.722Z,32.9
2022-11-20T11:27:38.089Z,0.8
2022-11-20T11:29:41.764Z,10.6
2022-11-20T11:31:45.579Z,21.7
2022-11-20T11:33:49.383Z,18
2022-11-20T11:35:55.969Z,27.9
2022-11-20T11:37:59.661Z,28.7
2022-11-20T11:40:23.562Z,28.2
2022-11-20T11:42:07.255Z,21
2022-11-20T11:44:10.979Z,26.3
2022-11-20T11:46:14.773Z,14.8
2022-11-20T11:48:18.567Z,25.7
2022-11-20T11:50:25.196Z,12.5
2022-11-20T11:52:29.000Z,26.2
2022-11-20T11:54:32.790Z,30.5
2022-11-20T11:56:36.510Z,34.6
2022-11-20T11:58:40.251Z,30.9
2022-11-20T12:00:44.030Z,27.1
2022-11-20T12:13:09.769Z,22.7
2022-11-20T12:15:13.480Z,22.8
2022-11-20T12:19:24.132Z,22.4
2022-11-20T12:21:27.594Z,21.3
2022-11-20T12:23:31.337Z,26.2
2022-11-20T12:24:34.597Z,33.5
2022-11-20T12:26:38.316Z,29.4
2022-11-20T12:28:42.150Z,22.4
2022-11-20T12:30:45.979Z,34.4
2022-11-20T12:32:52.714Z,28.7
2022-11-20T12:37:01.790Z,24.4
2022-11-20T12:41:09.478Z,27.6
2022-11-20T12:43:13.248Z,20.7
2022-11-20T12:47:23.727Z,32.6
2022-11-20T12:49:27.522Z,28.3
2022-11-20T12:51:31.346Z,29.6
2022-11-20T12:53:35.190Z,21.5
2022-11-20T12:55:38.906Z,16.7
2022-11-20T12:57:42.725Z,28.3
2022-11-20T12:59:46.454Z,18.5
2022-11-20T13:01:53.071Z,25.9
2022-11-20T13:03:56.795Z,26.6
2022-11-20T13:06:00.615Z,19
2022-11-20T13:08:04.333Z,20.8
2022-11-20T13:10:12.736Z,16.8
2022-11-20T13:12:11.870Z,24
2022-11-20T13:14:15.634Z,11.8
2022-11-20T13:16:22.346Z,24
2022-11-20T13:20:29.902Z,13.2
2022-11-20T13:22:59.667Z,18
2022-11-20T13:25:03.474Z,9.1
2022-11-20T13:27:07.290Z,20.4
2022-11-20T13:29:13.966Z,12.4
2022-11-20T13:31:17.750Z,10.8
2022-11-20T13:33:21.553Z,14.2
2022-11-20T13:35:25.366Z,29.5
2022-11-20T13:37:29.228Z,6.3
2022-11-20T13:39:32.914Z,21.9
2022-11-20T13:41:36.648Z,20.6
2022-11-20T13:43:43.327Z,26
2022-11-20T13:45:47.108Z,18.7
2022-11-20T13:47:50.914Z,17.3
2022-11-20T13:51:58.442Z,28.5
2022-11-20T13:54:02.225Z,32.4
2022-11-20T13:56:05.999Z,21.6
2022-11-20T13:58:12.619Z,22.8
2022-11-20T14:00:16.473Z,25.3
2022-11-20T14:02:20.198Z,25.3
2022-11-20T14:04:24.362Z,28.4
2022-11-20T14:06:27.779Z,23.2
2022-11-20T14:08:31.581Z,16.4
2022-11-20T14:10:35.342Z,3.3
2022-11-20T14:12:42.047Z,26.7
2022-11-20T14:14:45.813Z,20.4
2022-11-20T14:16:49.595Z,12.4
2022-11-20T14:17:52.943Z,18.5
2022-11-20T14:22:00.552Z,13.4
2022-11-20T14:24:04.327Z,19.3
2022-11-20T14:26:11.011Z,32
2022-11-20T14:28:14.795Z,28.4
2022-11-20T14:32:22.358Z,7.3
2022-11-20T14:34:26.128Z,24.1
2022-11-20T14:36:29.855Z,27.5
2022-11-20T14:38:33.508Z,6
2022-11-20T14:40:40.200Z,23
2022-11-20T14:42:43.969Z,24.5
2022-11-20T14:44:47.765Z,25.8
2022-11-20T14:46:51.591Z,18.3
2022-11-20T14:48:55.387Z,20.9
2022-11-20T14:50:59.192Z,13.5
2022-11-20T14:53:02.961Z,23.1
2022-11-20T14:55:09.545Z,33.7
2022-11-20T14:57:13.330Z,21.2
2022-11-20T15:01:20.905Z,19.3
2022-11-20T15:03:30.653Z,29.2
2022-11-20T15:09:38.953Z,31.2
2022-11-20T15:11:42.750Z,17.9
2022-11-20T15:14:49.874Z,28.8
2022-11-20T15:16:53.571Z,29.6
2022-11-20T15:18:57.258Z,30
2022-11-20T15:21:01.042Z,17.2
2022-11-20T15:23:07.544Z,26.7
2022-11-20T15:25:11.241Z,40.1
2022-11-20T15:27:14.924Z,57.6
2022-11-20T15:33:26.230Z,40.2
2022-11-20T15:35:30.035Z,31.6
2022-11-20T15:37:36.760Z,35.7
2022-11-20T15:39:40.515Z,38.5
2022-11-20T15:47:55.637Z,30.4
2022-11-20T15:52:06.024Z,27.1
2022-11-20T15:54:09.778Z,27
2022-11-20T15:56:13.564Z,23.1
2022-11-20T16:00:23.533Z,36
2022-11-20T16:06:35.245Z,30.5
2022-11-20T16:10:42.821Z,31.7
2022-11-20T16:11:46.147Z,26.8
2022-11-20T16:13:49.938Z,28.7
2022-11-20T16:15:53.742Z,36.8
2022-11-20T16:17:57.420Z,29.9
2022-11-20T16:20:04.151Z,33.2
2022-11-20T16:22:07.835Z,28.9
2022-11-20T16:24:11.640Z,31.1
2022-11-20T16:26:15.452Z,33.7
2022-11-20T16:28:19.494Z,37.5
2022-11-20T16:30:23.033Z,41.2
2022-11-20T16:34:33.558Z,34.3
2022-11-20T16:36:37.342Z,27.3
2022-11-20T16:38:41.166Z,29.9
2022-11-20T16:49:03.070Z,25.3
2022-11-20T16:51:06.886Z,27.3
2022-11-20T16:53:10.682Z,9.6
2022-11-20T16:55:14.512Z,29.8
2022-11-20T16:57:18.297Z,37.7
2022-11-20T16:59:22.099Z,40.2
2022-11-20T17:01:26.001Z,34.3
2022-11-20T17:03:32.621Z,35.8
2022-11-20T17:05:36.411Z,48.1
2022-11-20T17:07:40.253Z,37.9
2022-11-20T17:10:10.033Z,39.8
2022-11-20T17:12:13.811Z,27.9
2022-11-20T17:26:43.300Z,36.4
2022-11-20T17:28:47.104Z,45.7
2022-11-20T17:30:53.827Z,35.4
2022-11-20T17:32:57.621Z,30.9
2022-11-20T17:35:01.418Z,45.7
2022-11-20T17:37:05.208Z,44.1
2022-11-20T17:49:30.917Z,33.6
2022-11-20T17:51:34.693Z,40.9
2022-11-20T17:55:42.292Z,38.4
2022-11-20T18:04:00.390Z,56.7
2022-11-20T18:07:07.608Z,39.1
2022-11-20T18:09:11.314Z,35.7
2022-11-20T18:11:15.133Z,31.3
2022-11-20T18:13:21.947Z,34.2
2022-11-20T18:15:25.630Z,45.6
2022-11-20T18:19:33.282Z,27.1
2022-11-20T18:21:37.022Z,29.4
2022-11-20T18:23:40.840Z,36.7
2022-11-20T18:25:44.601Z,34.7
2022-11-20T18:27:51.308Z,34.3
2022-11-20T18:29:55.145Z,39.2
2022-11-20T18:31:58.920Z,49.9
2022-11-20T18:34:04.233Z,47.6
2022-11-20T18:36:07.987Z,34.5
2022-11-20T18:38:11.788Z,46.3
2022-11-20T18:40:15.593Z,34
2022-11-20T18:44:26.085Z,39.2
2022-11-20T18:46:29.864Z,29.8
2022-11-20T18:48:33.671Z,36.7
2022-11-20T18:50:37.459Z,44
2022-11-20T18:52:41.236Z,32.4
2022-11-20T18:56:51.723Z,44.1
2022-11-20T18:59:00.280Z,39
2022-11-20T19:02:02.727Z,37.6
2022-11-20T19:08:13.925Z,38
2022-11-20T19:10:20.642Z,46
2022-11-20T19:12:24.459Z,39.9
2022-11-20T19:14:28.254Z,45.6
2022-11-20T19:16:32.034Z,40.3
2022-11-20T19:18:35.821Z,40.1
2022-11-20T19:20:39.611Z,36.8
2022-11-20T19:22:43.404Z,38.3
2022-11-20T19:24:50.160Z,36.7
2022-11-20T19:26:53.925Z,47.3
2022-11-20T19:28:57.750Z,36
2022-11-20T19:31:01.419Z,35
2022-11-20T19:33:05.248Z,38.6
2022-11-20T19:35:09.048Z,41.5
2022-11-20T19:37:12.823Z,45
2022-11-20T19:41:23.341Z,30.5
2022-11-20T19:45:30.904Z,28.5
2022-11-20T19:48:05.948Z,48.5
2022-11-20T19:49:38.496Z,48.4
2022-11-20T19:51:42.286Z,46.5
2022-11-20T19:53:49.015Z,45.3
2022-11-20T19:55:52.796Z,47
2022-11-20T19:57:56.593Z,41
2022-11-20T20:01:03.640Z,40.1
2022-11-20T20:09:22.016Z,45.7
2022-11-20T20:15:33.044Z,45
2022-11-20T20:17:36.802Z,35.7
2022-11-20T20:19:40.621Z,49
2022-11-20T20:21:47.306Z,43.1
2022-11-20T20:23:51.142Z,40.7
2022-11-20T20:25:54.936Z,37.7
2022-11-20T20:27:58.728Z,47.9
2022-11-20T20:30:02.511Z,39.3
2022-11-20T20:32:06.288Z,47.9
2022-11-20T20:34:10.105Z,42.7
2022-11-20T20:38:20.502Z,43.4
2022-11-20T20:44:31.846Z,43.8
2022-11-20T20:48:39.415Z,34.4
2022-11-20T20:57:23.442Z,42.5
2022-11-20T20:59:27.260Z,45.3
2022-11-20T21:01:31.123Z,43.4
2022-11-20T21:03:37.725Z,48.1
2022-11-20T21:05:41.510Z,48.3
2022-11-20T21:07:45.315Z,32.2
2022-11-20T21:09:49.063Z,29.1
2022-11-20T21:11:52.850Z,39.9
2022-11-20T21:13:56.634Z,34.4
2022-11-20T21:16:00.417Z,45.6
2022-11-20T21:18:07.112Z,43.8
2022-11-20T21:20:10.868Z,50.5
2022-11-20T21:22:14.650Z,46.5
2022-11-20T21:24:18.318Z,51
2022-11-20T21:26:22.112Z,44.9
2022-11-20T21:28:25.884Z,49.4
2022-11-20T21:30:29.676Z,40.8
2022-11-20T21:32:36.376Z,39
2022-11-20T21:34:40.133Z,44
2022-11-20T21:36:43.925Z,28.3
2022-11-20T21:38:47.701Z,43.4
2022-11-20T21:40:51.501Z,47.2
2022-11-20T21:42:55.274Z,35.5
2022-11-20T21:44:59.034Z,45.8
2022-11-20T21:47:05.781Z,36.7
2022-11-20T21:49:09.505Z,54.5
2022-11-20T21:51:13.274Z,41.8
2022-11-20T21:52:16.610Z,42.8
2022-11-20T21:54:20.301Z,27.7
2022-11-20T21:56:24.089Z,41.6
2022-11-20T21:58:27.784Z,33.3
2022-11-20T22:10:53.346Z,38.1
2022-11-20T22:12:57.124Z,30.2
2022-11-20T22:15:03.718Z,37.1
2022-11-20T22:17:07.530Z,43.4
2022-11-20T22:19:11.370Z,35.3
2022-11-20T22:21:15.028Z,48.7
2022-11-20T22:29:33.182Z,45.7
2022-11-20T22:31:36.812Z,33.1
2022-11-20T22:33:40.611Z,37.1
2022-11-20T22:35:44.385Z,33
2022-11-20T22:37:48.148Z,34.1
2022-11-20T22:39:52.065Z,38.6
2022-11-20T22:41:55.670Z,39.1
2022-11-20T22:44:02.401Z,46.1
2022-11-20T22:46:06.167Z,38
2022-11-20T22:48:09.963Z,32.3
2022-11-20T22:49:13.294Z,41.5
2022-11-20T22:51:17.056Z,30.1
2022-11-20T22:53:20.823Z,38.9
2022-11-20T22:55:24.624Z,31.6
2022-11-20T22:57:31.310Z,45.2
2022-11-20T22:59:35.062Z,38.4
2022-11-20T23:01:38.845Z,38.5
2022-11-20T23:03:42.643Z,46.5
2022-11-20T23:05:46.380Z,40.5
2022-11-20T23:09:53.913Z,34.3
2022-11-20T23:12:00.580Z,46.7
2022-11-20T23:14:04.404Z,34.7
2022-11-20T23:16:08.122Z,30.1
2022-11-20T23:18:11.923Z,40.6
2022-11-20T23:20:15.689Z,41.9
2022-11-20T23:22:19.440Z,38.1
2022-11-20T23:24:23.220Z,40.1
2022-11-20T23:26:29.935Z,32.6
2022-11-20T23:28:33.683Z,48.6
2022-11-20T23:30:37.441Z,37.6
2022-11-20T23:32:41.227Z,39.2
2022-11-20T23:34:44.952Z,44.1
2022-11-20T23:36:48.628Z,41.3
2022-11-20T23:38:52.379Z,40.6
2022-11-20T23:43:02.837Z,39.7
2022-11-20T23:46:15.123Z,38.2
2022-11-20T23:48:13.694Z,39.1
2022-11-20T23:50:17.423Z,34.5
2022-11-20T23:52:21.199Z,42.8
2022-11-20T23:54:28.318Z,46.6
2022-11-20T23:56:31.734Z,33.7
2022-11-20T23:58:35.469Z,37.5
